KODO

Odessa-Schlemeyer Field Airport

Odessa, Texas, USA
METAR KODO 211353Z AUTO 10010KT 8SM 17/16 A3011 RMK AO2 SLP161 T01720161
Observed Flight Rules
May-21 @ 13:53 UTC (an hour ago)
Wind Visibility
100° at 10 knots 8 miles
Temperatures Readings
Current 17°C / 63°F
Dewpoint 16°C / 61°F
Humidity 94%
Altimeter 30.11" Hg
Pressure 1016.1 hPa
Elevation 902
METAR KODO 211353Z AUTO 10010KT 8SM 17/16 A3011 RMK AO2 SLP161 T01720161
Observed Flight Rules
May-21 @ 13:53 UTC
(an hour ago)
Wind Visibility
100° at 10 knots 8 miles
Temperature Dewpoint
17°C / 63°F 16°C / 61°F
Humidity Altimeter Pressure
94% 30.11" Hg 1016.1 hPa